createdAt,value
2018-02-15T00:00:59.379Z,37.4
2018-02-15T00:10:59.173Z,39.6
2018-02-15T00:20:59.036Z,44.4
2018-02-15T00:30:59.881Z,45.7
2018-02-15T00:40:59.638Z,40.2
2018-02-15T00:50:59.381Z,37.6
2018-02-15T01:00:59.241Z,38.9
2018-02-15T01:10:59.021Z,37.8
2018-02-15T01:20:58.900Z,37.3
2018-02-15T01:30:59.598Z,38.8
2018-02-15T01:40:59.342Z,39.2
2018-02-15T01:50:59.079Z,41.4
2018-02-15T02:00:58.776Z,42.9
2018-02-15T02:10:59.548Z,41.4
2018-02-15T02:20:59.394Z,44.1
2018-02-15T02:30:59.182Z,42.7
2018-02-15T02:40:58.928Z,42.3
2018-02-15T02:50:59.693Z,42.0
2018-02-15T03:00:59.474Z,47.2
2018-02-15T03:10:59.240Z,42.2
2018-02-15T03:20:59.065Z,40.8
2018-02-15T03:30:59.776Z,45.0
2018-02-15T03:40:59.510Z,44.3
2018-02-15T03:50:59.236Z,46.3
2018-02-15T04:00:58.955Z,42.7
2018-02-15T04:10:59.678Z,44.7
2018-02-15T04:20:59.498Z,47.0
2018-02-15T04:30:59.220Z,49.5
2018-02-15T04:40:58.920Z,45.0
2018-02-15T04:50:59.593Z,47.0
2018-02-15T05:00:59.354Z,48.9
2018-02-15T05:10:59.080Z,49.1
2018-02-15T05:20:58.877Z,47.2
2018-02-15T05:30:59.196Z,49.9
2018-02-15T05:40:58.904Z,46.6
2018-02-15T05:50:59.613Z,53.1
2018-02-15T06:00:59.340Z,53.2
2018-02-15T06:10:58.957Z,51.5
2018-02-15T06:20:59.810Z,49.6
2018-02-15T06:30:59.526Z,53.1
2018-02-15T06:40:59.266Z,63.7
2018-02-15T06:50:59.001Z,53.2
2018-02-15T07:00:59.726Z,49.3
2018-02-15T07:10:59.441Z,55.3
2018-02-15T07:20:59.289Z,64.0
2018-02-15T07:30:59.008Z,62.4
2018-02-15T07:40:59.747Z,56.9
2018-02-15T07:50:59.474Z,55.9
2018-02-15T08:00:59.201Z,47.8
2018-02-15T08:10:58.952Z,52.8
2018-02-15T08:20:59.739Z,48.6
2018-02-15T08:30:59.463Z,55.8
2018-02-15T08:40:59.211Z,51.4
2018-02-15T08:50:58.969Z,51.7
2018-02-15T09:00:59.632Z,52.2
2018-02-15T09:10:59.414Z,47.3
2018-02-15T09:20:59.264Z,55.8
2018-02-15T09:30:59.008Z,56.1
2018-02-15T09:40:59.717Z,49.7
2018-02-15T09:50:59.491Z,48.2
2018-02-15T10:00:59.225Z,45.0
2018-02-15T10:10:58.986Z,48.2
2018-02-15T10:20:58.873Z,47.9
2018-02-15T10:30:59.694Z,53.5
2018-02-15T10:40:59.459Z,48.8
2018-02-15T10:50:59.246Z,49.0
2018-02-15T11:00:59.039Z,47.2
2018-02-15T11:10:59.797Z,48.0
2018-02-15T11:20:59.732Z,62.5
2018-02-15T11:30:59.490Z,49.1
2018-02-15T11:40:59.220Z,51.7
2018-02-15T11:50:59.011Z,50.8
2018-02-15T12:00:59.690Z,48.7
2018-02-15T12:10:59.502Z,46.9
2018-02-15T12:20:59.406Z,50.1
2018-02-15T12:30:59.167Z,56.2
2018-02-15T12:40:58.898Z,61.8
2018-02-15T12:50:59.645Z,57.1
2018-02-15T13:00:59.388Z,67.2
2018-02-15T13:10:59.131Z,61.5
2018-02-15T13:20:59.110Z,60.8
2018-02-15T13:30:58.846Z,64.2
2018-02-15T13:40:59.582Z,55.2
2018-02-15T13:50:59.306Z,59.3
2018-02-15T14:00:58.974Z,52.4
2018-02-15T14:10:59.700Z,58.2
2018-02-15T14:20:59.560Z,63.8
2018-02-15T14:30:59.267Z,56.4
2018-02-15T14:40:59.027Z,59.2
2018-02-15T14:50:59.784Z,62.4
2018-02-15T15:00:59.519Z,60.9
2018-02-15T15:10:59.204Z,65.5
2018-02-15T15:20:59.026Z,66.2
2018-02-15T15:30:59.826Z,71.6
2018-02-15T15:40:59.688Z,64.4
2018-02-15T15:50:59.432Z,61.1
2018-02-15T16:00:59.115Z,56.2
2018-02-15T16:10:58.891Z,67.1
2018-02-15T16:20:59.739Z,69.2
2018-02-15T16:30:59.505Z,65.2
2018-02-15T16:40:59.236Z,71.5
2018-02-15T16:50:59.073Z,78.0
2018-02-15T17:00:59.833Z,73.4
2018-02-15T17:10:59.647Z,89.3
2018-02-15T17:20:59.768Z,99.8
2018-02-15T17:30:59.546Z,102.3
2018-02-15T17:40:59.265Z,98.8
2018-02-15T17:50:59.034Z,102.7
2018-02-15T18:00:59.783Z,106.9
2018-02-15T18:10:59.583Z,118.9
2018-02-15T18:20:59.469Z,119.5
2018-02-15T18:30:59.237Z,131.9
2018-02-15T18:40:59.110Z,127.2
2018-02-15T18:50:58.934Z,126.3
2018-02-15T19:00:59.824Z,149.4
2018-02-15T19:10:59.699Z,140.6
2018-02-15T19:20:59.696Z,147.3
2018-02-15T19:30:59.608Z,133.9
2018-02-15T19:40:59.524Z,141.0
2018-02-15T19:50:59.432Z,165.6
2018-02-15T20:00:59.369Z,138.6
2018-02-15T20:10:59.332Z,137.6
2018-02-15T20:20:59.385Z,138.7
2018-02-15T20:30:59.334Z,128.4
2018-02-15T20:40:59.225Z,134.8
2018-02-15T20:50:59.229Z,141.5
2018-02-15T21:00:59.284Z,132.6
2018-02-15T21:10:59.290Z,134.1
2018-02-15T21:20:59.416Z,135.8
2018-02-15T21:30:59.311Z,133.9
2018-02-15T21:40:59.056Z,130.9
2018-02-15T21:50:59.778Z,127.5
2018-02-15T22:00:59.432Z,169.4
2018-02-15T22:10:59.169Z,143.4
2018-02-15T22:20:58.948Z,137.3
2018-02-15T22:30:59.686Z,141.5
2018-02-15T22:40:59.405Z,138.9
2018-02-15T22:50:59.103Z,136.8
2018-02-15T23:00:58.872Z,142.7
2018-02-15T23:10:59.578Z,138.3
2018-02-15T23:20:59.427Z,128.8
2018-02-15T23:30:59.141Z,124.3
2018-02-15T23:40:58.897Z,127.8
2018-02-15T23:50:59.636Z,138.2
